Time;durP1;ratioP1;P1;durP2;ratioP2;P2;SDS_P1;SDS_P2;PMS_P1;PMS_P2;Temp;Humidity;BMP_temperature;BMP_pressure;BME280_temperature;BME280_humidity;BME280_pressure;Samples;Min_cycle;Max_cycle;Signal;HPM_P1;HPM_P2
2023/12/17 00:01:14;;;;;;;16.30;8.95;;;;;;;8.59;100.00;103541.91;5073772;28;20143;-49
2023/12/17 00:03:43;;;;;;;14.98;7.88;;;;;;;8.60;100.00;103541.00;5073841;28;20094;-48
2023/12/17 00:06:11;;;;;;;16.77;8.32;;;;;;;8.59;100.00;103549.78;5072974;28;20055;-48
2023/12/17 00:08:40;;;;;;;14.90;7.75;;;;;;;8.59;100.00;103552.41;5073833;28;20072;-48
2023/12/17 00:11:11;;;;;;;12.65;7.43;;;;;;;8.58;100.00;103555.91;5073453;28;20530;-48
2023/12/17 00:13:39;;;;;;;13.10;7.00;;;;;;;8.58;100.00;103554.13;5072369;28;20161;-48
2023/12/17 00:16:09;;;;;;;12.63;6.47;;;;;;;8.56;100.00;103558.56;5073483;28;20067;-49
2023/12/17 00:18:37;;;;;;;13.82;6.88;;;;;;;8.61;100.00;103564.56;5073456;28;20052;-47
2023/12/17 00:21:06;;;;;;;11.43;6.28;;;;;;;8.57;100.00;103557.63;5073027;28;20064;-48
2023/12/17 00:23:34;;;;;;;12.63;6.90;;;;;;;8.56;100.00;103558.56;5072697;28;20052;-46
2023/12/17 00:26:03;;;;;;;11.40;6.75;;;;;;;8.58;100.00;103553.28;5073164;28;20048;-48
2023/12/17 00:28:31;;;;;;;11.93;6.95;;;;;;;8.59;100.00;103550.63;5073159;28;20043;-50
2023/12/17 00:31:01;;;;;;;13.65;7.93;;;;;;;8.58;100.00;103541.03;5072901;28;20047;-49
2023/12/17 00:33:31;;;;;;;15.00;8.68;;;;;;;8.58;100.00;103533.16;5073081;28;20056;-47
2023/12/17 00:35:59;;;;;;;14.75;9.43;;;;;;;8.61;100.00;103538.34;5073009;28;20049;-50
2023/12/17 00:38:28;;;;;;;14.82;8.68;;;;;;;8.60;100.00;103531.38;5072980;28;20499;-50
2023/12/17 00:40:56;;;;;;;14.40;8.75;;;;;;;8.60;100.00;103535.75;5072894;28;20040;-47
2023/12/17 00:43:24;;;;;;;14.60;8.35;;;;;;;8.60;100.00;103535.75;5072914;28;20044;-50
2023/12/17 00:45:52;;;;;;;14.27;7.00;;;;;;;8.58;100.00;103535.78;5071672;28;20052;-48
2023/12/17 00:48:20;;;;;;;12.05;6.53;;;;;;;8.59;100.00;103542.75;5071500;28;20044;-47
2023/12/17 00:50:50;;;;;;;13.68;6.80;;;;;;;8.57;100.00;103548.91;5072828;28;20411;-50
2023/12/17 00:53:18;;;;;;;12.43;6.45;;;;;;;8.61;100.00;103543.59;5071327;28;20167;-47
2023/12/17 00:55:46;;;;;;;10.10;5.43;;;;;;;8.58;100.00;103548.88;5071258;28;20515;-49
2023/12/17 00:58:14;;;;;;;10.32;5.55;;;;;;;8.57;100.00;103555.00;5072491;28;20391;-48
2023/12/17 01:00:43;;;;;;;10.75;5.95;;;;;;;8.60;100.00;103546.25;5072504;28;20064;-46
2023/12/17 01:03:22;;;;;;;10.10;5.80;;;;;;;8.61;100.00;103542.75;5071219;28;20041;-51
2023/12/17 01:05:52;;;;;;;9.25;5.35;;;;;;;8.60;100.00;103538.38;5072579;28;20040;-48
2023/12/17 01:08:20;;;;;;;13.07;6.40;;;;;;;8.60;100.00;103541.88;5072651;28;20486;-48
2023/12/17 01:10:48;;;;;;;13.05;5.85;;;;;;;8.60;100.00;103547.13;5072473;28;20059;-48
2023/12/17 01:13:16;;;;;;;13.00;6.32;;;;;;;8.60;100.00;103538.38;5069051;28;20098;-46
2023/12/17 01:15:45;;;;;;;12.90;6.00;;;;;;;8.61;100.00;103534.88;5067645;28;20396;-48
2023/12/17 01:18:13;;;;;;;10.82;6.40;;;;;;;8.57;100.00;103533.19;5072387;28;20052;-47
2023/12/17 01:20:42;;;;;;;11.32;6.50;;;;;;;8.57;100.00;103534.03;5072349;28;20125;-46
2023/12/17 01:23:11;;;;;;;10.60;6.13;;;;;;;8.62;100.00;103534.84;5072255;28;20052;-49
2023/12/17 01:25:39;;;;;;;12.52;6.97;;;;;;;8.61;100.00;103527.00;5072212;28;20037;-46
2023/12/17 01:28:07;;;;;;;13.55;6.95;;;;;;;8.60;100.00;103525.25;5072181;28;20439;-46
2023/12/17 01:30:36;;;;;;;13.02;6.75;;;;;;;8.57;100.00;103526.16;5072010;28;20511;-47
2023/12/17 01:33:04;;;;;;;11.40;6.00;;;;;;;8.56;100.00;103518.31;5070677;28;20381;-46
2023/12/17 01:35:35;;;;;;;14.35;6.80;;;;;;;8.57;100.00;103525.31;5071763;28;20047;-46
2023/12/17 01:38:03;;;;;;;11.05;5.80;;;;;;;8.59;100.00;103524.41;5071719;28;20091;-48
2023/12/17 01:40:33;;;;;;;10.13;5.28;;;;;;;8.56;100.00;103518.31;5071662;28;20051;-48
2023/12/17 01:43:03;;;;;;;12.85;6.32;;;;;;;8.54;100.00;103514.88;5071770;28;20529;-49
2023/12/17 01:45:31;;;;;;;12.85;5.57;;;;;;;8.57;100.00;103531.41;5071030;28;20511;-49
2023/12/17 01:48:00;;;;;;;11.32;5.32;;;;;;;8.55;100.00;103522.72;5068784;28;20052;-48
2023/12/17 01:50:29;;;;;;;11.48;5.32;;;;;;;8.57;100.00;103538.44;5068304;28;20052;-46
2023/12/17 01:52:58;;;;;;;9.38;5.22;;;;;;;8.55;100.00;103535.81;5071642;28;20098;-46
2023/12/17 01:55:28;;;;;;;10.18;5.72;;;;;;;8.59;100.00;103539.28;5070356;28;20052;-49
2023/12/17 01:57:58;;;;;;;10.40;5.65;;;;;;;8.57;100.00;103547.16;5071944;28;20617;-49
2023/12/17 02:00:26;;;;;;;11.30;5.68;;;;;;;8.58;100.00;103543.66;5071558;28;20051;-47
2023/12/17 02:02:54;;;;;;;9.90;5.30;;;;;;;8.58;100.00;103537.53;5071602;28;20040;-50
2023/12/17 02:05:23;;;;;;;10.10;5.10;;;;;;;8.54;100.00;103541.09;5070295;28;20053;-48
2023/12/17 02:07:51;;;;;;;8.40;4.53;;;;;;;8.52;100.00;103540.22;5071557;28;20044;-49
2023/12/17 02:10:19;;;;;;;9.88;5.15;;;;;;;8.58;100.00;103540.16;5104015;28;20052;-49
2023/12/17 02:12:47;;;;;;;8.90;5.45;;;;;;;8.56;100.00;103537.56;5071720;28;20059;-48
2023/12/17 02:15:17;;;;;;;10.65;5.00;;;;;;;8.58;100.00;103538.41;5071661;28;20083;-48
2023/12/17 02:17:46;;;;;;;10.85;4.90;;;;;;;8.55;100.00;103522.72;5071598;28;20049;-49
2023/12/17 02:20:14;;;;;;;9.60;4.88;;;;;;;8.57;100.00;103523.53;5071336;28;20055;-49
2023/12/17 02:22:48;;;;;;;9.57;4.55;;;;;;;8.56;100.00;103528.81;5071487;28;20047;-49
2023/12/17 02:25:18;;;;;;;7.88;3.78;;;;;;;8.56;100.00;103529.69;5071737;28;20484;-48
2023/12/17 02:27:46;;;;;;;9.57;3.83;;;;;;;8.58;100.00;103522.66;5072829;28;20147;-47
2023/12/17 02:30:15;;;;;;;9.73;3.97;;;;;;;8.59;100.00;103526.16;5074421;28;20487;-48
2023/12/17 02:32:43;;;;;;;9.25;4.22;;;;;;;8.55;100.00;103525.34;5075224;28;20040;-47
2023/12/17 02:35:11;;;;;;;9.57;4.78;;;;;;;8.57;100.00;103527.94;5073971;28;20119;-49
2023/12/17 02:37:41;;;;;;;9.98;4.45;;;;;;;8.57;100.00;103530.56;5075434;28;20068;-46
2023/12/17 02:40:10;;;;;;;10.07;4.63;;;;;;;8.56;100.00;103529.69;5075617;28;20106;-46
2023/12/17 02:42:40;;;;;;;13.65;5.45;;;;;;;8.56;100.00;103523.56;5075102;28;20039;-48
2023/12/17 02:45:11;;;;;;;9.40;4.72;;;;;;;8.57;100.00;103543.66;5074973;28;20068;-47
2023/12/17 02:47:40;;;;;;;13.93;6.15;;;;;;;8.57;100.00;103531.41;5075402;28;20384;-47
2023/12/17 02:50:09;;;;;;;13.02;6.90;;;;;;;8.58;100.00;103538.41;5075304;28;20488;-49
2023/12/17 02:52:37;;;;;;;13.15;6.70;;;;;;;8.57;100.00;103538.44;5074949;28;20084;-49
2023/12/17 02:55:06;;;;;;;13.65;7.00;;;;;;;8.59;100.00;103544.53;5075108;28;20515;-47
2023/12/17 02:57:35;;;;;;;14.45;7.50;;;;;;;8.60;100.00;103541.88;5074905;28;20450;-49
2023/12/17 03:00:05;;;;;;;13.10;7.63;;;;;;;8.59;100.00;103531.41;5074837;28;20134;-46
2023/12/17 03:02:34;;;;;;;15.48;7.50;;;;;;;8.57;100.00;103531.41;5074959;28;20052;-47
2023/12/17 03:05:02;;;;;;;12.00;7.40;;;;;;;8.58;100.00;103533.16;5074834;28;20520;-47
2023/12/17 03:07:31;;;;;;;13.23;7.20;;;;;;;8.63;100.00;103530.47;5074391;28;20430;-47
2023/12/17 03:09:59;;;;;;;14.07;7.07;;;;;;;8.59;100.00;103523.53;5074282;28;20123;-49
2023/12/17 03:12:27;;;;;;;14.38;7.07;;;;;;;8.63;100.00;103520.84;5074360;28;20404;-46
2023/12/17 03:14:55;;;;;;;12.05;6.50;;;;;;;8.59;100.00;103526.16;5074762;28;20047;-47
2023/12/17 03:17:25;;;;;;;13.15;6.65;;;;;;;8.57;100.00;103515.66;5074830;28;20395;-47
2023/12/17 03:19:53;;;;;;;15.27;6.65;;;;;;;8.57;100.00;103514.81;5074996;28;20494;-49
2023/12/17 03:22:21;;;;;;;13.15;7.10;;;;;;;8.55;100.00;103512.22;5074698;28;20442;-47
2023/12/17 03:24:50;;;;;;;15.00;7.22;;;;;;;8.54;100.00;103505.22;5074664;28;20573;-49
2023/12/17 03:27:18;;;;;;;11.75;7.15;;;;;;;8.53;100.00;103500.00;5074330;28;20044;-47
2023/12/17 03:29:46;;;;;;;11.10;6.20;;;;;;;8.57;100.00;103504.31;5074581;28;20075;-47
2023/12/17 03:32:15;;;;;;;11.60;6.68;;;;;;;8.57;100.00;103497.31;5074517;28;20036;-44
2023/12/17 03:34:44;;;;;;;11.95;5.70;;;;;;;8.56;100.00;103492.09;5074263;28;20123;-49
2023/12/17 03:37:12;;;;;;;11.60;5.68;;;;;;;8.56;100.00;103492.97;5074252;28;20044;-48
2023/12/17 03:39:41;;;;;;;11.95;5.97;;;;;;;8.58;100.00;103493.81;5073583;28;20063;-49
2023/12/17 03:42:09;;;;;;;11.55;5.25;;;;;;;8.56;100.00;103492.09;5073318;28;20128;-49
2023/12/17 03:44:37;;;;;;;11.63;5.20;;;;;;;8.55;100.00;103491.22;5074470;28;20494;-48
2023/12/17 03:47:05;;;;;;;12.40;5.50;;;;;;;8.56;100.00;103487.72;5074028;28;20049;-46
2023/12/17 03:49:34;;;;;;;12.25;5.40;;;;;;;8.55;100.00;103486.00;5074051;28;20071;-48
2023/12/17 03:52:07;;;;;;;13.18;5.68;;;;;;;8.56;100.00;103481.59;5073938;28;20531;-47
2023/12/17 03:54:39;;;;;;;13.32;6.60;;;;;;;8.59;100.00;103487.69;5072759;28;20124;-49
2023/12/17 03:57:07;;;;;;;12.52;5.90;;;;;;;8.56;100.00;103486.84;5073909;28;20032;-48
2023/12/17 03:59:37;;;;;;;10.57;5.30;;;;;;;8.52;100.00;103486.03;5074143;28;20423;-51
2023/12/17 04:02:05;;;;;;;11.23;5.93;;;;;;;8.52;100.00;103478.16;5073711;28;20056;-51
2023/12/17 04:04:33;;;;;;;12.73;5.82;;;;;;;8.56;100.00;103469.38;5073623;28;20686;-49
2023/12/17 04:07:01;;;;;;;11.10;5.38;;;;;;;8.52;100.00;103472.03;5073857;28;20053;-48
2023/12/17 04:09:31;;;;;;;11.60;5.65;;;;;;;8.50;100.00;103461.56;5073465;28;20044;-46
2023/12/17 04:11:59;;;;;;;11.18;4.85;;;;;;;8.53;100.00;103455.41;5073491;28;20048;-48
2023/12/17 04:14:27;;;;;;;11.85;5.13;;;;;;;8.53;100.00;103451.03;5072523;28;20090;-47
2023/12/17 04:16:56;;;;;;;12.00;4.60;;;;;;;8.50;100.00;103466.81;5073574;28;20052;-47
2023/12/17 04:19:24;;;;;;;12.85;5.35;;;;;;;8.51;100.00;103465.94;5072124;28;20074;-58
2023/12/17 04:21:52;;;;;;;10.75;5.18;;;;;;;8.49;100.00;103465.06;5073497;28;20086;-58
2023/12/17 04:24:20;;;;;;;11.68;5.75;;;;;;;8.51;100.00;103467.66;5071532;28;20056;-58
2023/12/17 04:26:53;;;;;;;12.45;6.65;;;;;;;8.50;100.00;103461.56;5069226;28;20115;-59
2023/12/17 04:29:21;;;;;;;13.15;7.07;;;;;;;8.49;100.00;103465.06;5069949;28;20045;-57
2023/12/17 04:31:49;;;;;;;12.75;6.47;;;;;;;8.46;100.00;103457.25;5070374;28;20046;-59
2023/12/17 04:34:20;;;;;;;11.98;6.80;;;;;;;8.48;100.00;103462.47;5072693;28;20442;-58
2023/12/17 04:36:48;;;;;;;13.57;7.03;;;;;;;8.50;100.00;103466.81;5070264;28;20547;-58
2023/12/17 04:39:16;;;;;;;15.57;7.53;;;;;;;8.49;100.00;103464.22;5071850;28;20048;-58
2023/12/17 04:41:45;;;;;;;14.90;7.70;;;;;;;8.45;100.00;103458.16;5069685;28;20775;-58
2023/12/17 04:44:14;;;;;;;13.57;7.05;;;;;;;8.42;100.00;103463.41;5070070;28;20044;-59
2023/12/17 04:46:42;;;;;;;13.15;6.45;;;;;;;8.44;100.00;103464.28;5072984;28;20056;-59
2023/12/17 04:49:11;;;;;;;9.98;5.18;;;;;;;8.42;100.00;103458.16;5072873;28;20156;-58
2023/12/17 04:51:39;;;;;;;11.00;5.40;;;;;;;8.40;100.00;103462.59;5071868;28;20063;-59
2023/12/17 04:54:07;;;;;;;12.02;6.07;;;;;;;8.42;100.00;103460.78;5072597;28;20044;-59
2023/12/17 04:56:36;;;;;;;11.63;6.20;;;;;;;8.43;100.00;103454.66;5072875;28;20049;-58
2023/12/17 04:59:07;;;;;;;12.60;6.37;;;;;;;8.43;100.00;103459.91;5072863;28;20082;-59
2023/12/17 05:01:40;;;;;;;11.68;6.85;;;;;;;8.43;100.00;103462.53;5072888;28;20453;-58
2023/12/17 05:04:08;;;;;;;13.77;6.72;;;;;;;8.42;100.00;103459.00;5071036;28;20575;-58
2023/12/17 05:06:37;;;;;;;12.95;7.40;;;;;;;8.40;100.00;103454.72;5069708;28;20809;-58
2023/12/17 05:09:05;;;;;;;12.57;7.80;;;;;;;8.39;100.00;103453.81;5069595;28;20384;-58
2023/12/17 05:11:33;;;;;;;14.25;8.88;;;;;;;8.41;100.00;103457.31;5072223;28;20737;-59
2023/12/17 05:14:01;;;;;;;16.98;8.77;;;;;;;8.41;100.00;103461.66;5072503;28;20044;-59
2023/12/17 05:16:29;;;;;;;14.95;8.85;;;;;;;8.39;100.00;103458.22;5072487;28;20074;-58
2023/12/17 05:19:01;;;;;;;16.30;9.15;;;;;;;8.38;100.00;103459.94;5072578;28;20051;-59
2023/12/17 05:21:30;;;;;;;20.27;10.45;;;;;;;8.38;100.00;103456.47;5072362;28;20395;-58
2023/12/17 05:23:58;;;;;;;21.45;10.52;;;;;;;8.38;100.00;103451.22;5069709;28;20484;-58
2023/12/17 05:26:26;;;;;;;23.05;11.30;;;;;;;8.36;100.00;103451.25;5069665;28;20047;-58
2023/12/17 05:28:54;;;;;;;19.05;10.35;;;;;;;8.39;100.00;103452.97;5072477;28;20047;-59
2023/12/17 05:31:22;;;;;;;19.73;11.27;;;;;;;8.36;100.00;103445.16;5073451;28;20071;-59
2023/12/17 05:33:51;;;;;;;22.92;11.40;;;;;;;8.37;100.00;103450.38;5072355;28;20426;-59
2023/12/17 05:36:21;;;;;;;22.48;12.45;;;;;;;8.35;100.00;103448.66;5072170;28;20127;-58
2023/12/17 05:38:49;;;;;;;22.83;11.82;;;;;;;8.36;100.00;103437.28;5071977;28;20060;-58
2023/12/17 05:41:21;;;;;;;23.77;12.55;;;;;;;8.37;100.00;103436.38;5072105;28;20040;-59
2023/12/17 05:43:49;;;;;;;20.60;12.00;;;;;;;8.37;100.00;103441.63;5071900;28;20518;-59
2023/12/17 05:46:17;;;;;;;21.63;12.13;;;;;;;8.35;100.00;103443.41;5071739;28;20056;-59
2023/12/17 05:48:45;;;;;;;25.60;12.77;;;;;;;8.34;100.00;103441.66;5070415;28;20070;-58
2023/12/17 05:51:14;;;;;;;22.05;11.25;;;;;;;8.37;100.00;103444.25;5071940;28;20056;-58
2023/12/17 05:53:46;;;;;;;24.48;12.82;;;;;;;8.35;100.00;103432.94;5071815;28;20051;-58
2023/12/17 05:56:15;;;;;;;24.00;12.07;;;;;;;8.34;100.00;103436.44;5071830;28;20071;-58
2023/12/17 05:58:44;;;;;;;23.13;12.85;;;;;;;8.35;100.00;103433.78;5071843;28;20045;-58
2023/12/17 06:01:13;;;;;;;22.88;12.55;;;;;;;8.36;100.00;103432.03;5071671;28;20503;-59
2023/12/17 06:03:41;;;;;;;23.98;12.90;;;;;;;8.37;100.00;103429.41;5071104;28;20047;-60
2023/12/17 06:06:09;;;;;;;23.10;12.48;;;;;;;8.38;100.00;103432.88;5071603;28;20079;-59
2023/12/17 06:08:38;;;;;;;21.95;12.25;;;;;;;8.37;100.00;103441.63;5071835;28;20059;-58
2023/12/17 06:11:08;;;;;;;24.08;13.35;;;;;;;8.36;100.00;103426.81;5071744;28;20119;-59
2023/12/17 06:13:36;;;;;;;22.23;12.50;;;;;;;8.34;100.00;103439.06;5071514;28;20048;-59
2023/12/17 06:16:06;;;;;;;21.55;11.63;;;;;;;8.29;100.00;103426.88;5071764;28;20059;-59
2023/12/17 06:18:34;;;;;;;18.98;11.20;;;;;;;8.34;100.00;103434.66;5071902;28;20063;-59
2023/12/17 06:21:03;;;;;;;21.80;11.73;;;;;;;8.35;100.00;103441.66;5071987;28;20499;-58
2023/12/17 06:23:32;;;;;;;19.50;10.93;;;;;;;8.36;100.00;103443.38;5071715;28;20076;-59
2023/12/17 06:26:04;;;;;;;21.67;11.18;;;;;;;8.37;100.00;103449.50;5071054;28;20570;-59
2023/12/17 06:28:34;;;;;;;22.08;12.48;;;;;;;8.36;100.00;103447.78;5069942;28;20080;-58
2023/12/17 06:31:02;;;;;;;20.30;12.15;;;;;;;8.37;100.00;103452.09;5071712;28;20497;-58
2023/12/17 06:33:31;;;;;;;21.05;11.85;;;;;;;8.37;100.00;103459.97;5071638;28;20037;-58
2023/12/17 06:35:59;;;;;;;19.63;11.77;;;;;;;8.36;100.00;103458.28;5070365;28;20068;-59
2023/12/17 06:38:30;;;;;;;24.27;13.35;;;;;;;8.37;100.00;103453.00;5071549;28;20074;-58
2023/12/17 06:40:57;;;;;;;22.65;12.77;;;;;;;8.37;100.00;103462.59;5070388;28;20048;-58
2023/12/17 06:43:26;;;;;;;20.30;12.30;;;;;;;8.35;100.00;103451.28;5071145;28;20052;-58
2023/12/17 06:45:55;;;;;;;23.48;13.40;;;;;;;8.39;100.00;103458.22;5071413;28;20047;-46
2023/12/17 06:48:23;;;;;;;24.52;13.30;;;;;;;8.38;100.00;103462.56;5071264;28;20392;-51
2023/12/17 06:50:52;;;;;;;24.77;13.55;;;;;;;8.36;100.00;103458.28;5071346;28;20044;-46
2023/12/17 06:53:20;;;;;;;23.40;13.93;;;;;;;8.35;100.00;103467.00;5049834;28;20052;-48
2023/12/17 06:55:49;;;;;;;27.25;14.52;;;;;;;8.35;100.00;103474.88;5051553;28;20052;-47
2023/12/17 06:58:17;;;;;;;26.67;14.65;;;;;;;8.37;100.00;103471.34;5051223;28;20563;-59
2023/12/17 07:00:45;;;;;;;25.52;13.60;;;;;;;8.36;100.00;103468.75;5051188;28;20057;-58
2023/12/17 07:03:18;;;;;;;23.13;13.65;;;;;;;8.35;100.00;103465.25;5051432;28;20548;-58
2023/12/17 07:05:46;;;;;;;24.45;13.88;;;;;;;8.33;100.00;103463.53;5051086;28;20041;-58
2023/12/17 07:08:15;;;;;;;21.23;12.90;;;;;;;8.29;100.00;103468.81;5050304;28;20048;-58
2023/12/17 07:10:46;;;;;;;20.83;12.88;;;;;;;8.34;100.00;103471.38;5048570;28;20098;-58
2023/12/17 07:13:15;;;;;;;21.90;12.88;;;;;;;8.34;100.00;103463.50;5048782;28;20052;-58
2023/12/17 07:15:44;;;;;;;25.52;14.57;;;;;;;8.33;100.00;103461.78;5052169;28;20251;-58
2023/12/17 07:18:15;;;;;;;23.25;13.60;;;;;;;8.31;100.00;103460.09;5064445;28;20060;-58
2023/12/17 07:20:44;;;;;;;23.73;14.13;;;;;;;8.28;100.00;103455.75;5074775;28;20476;-58
2023/12/17 07:23:12;;;;;;;25.95;13.75;;;;;;;8.26;100.00;103455.75;5074736;28;20044;-58
2023/12/17 07:25:40;;;;;;;22.08;13.50;;;;;;;8.28;100.00;103458.38;5073013;28;20056;-58
2023/12/17 07:28:09;;;;;;;24.60;14.07;;;;;;;8.25;100.00;103448.78;5069778;28;20147;-58
2023/12/17 07:30:37;;;;;;;23.40;14.38;;;;;;;8.25;100.00;103456.66;5074257;28;20044;-58
2023/12/17 07:33:06;;;;;;;23.67;14.13;;;;;;;8.28;100.00;103464.47;5074533;28;20053;-58
2023/12/17 07:35:36;;;;;;;26.50;15.48;;;;;;;8.27;100.00;103461.88;5074592;28;20037;-58
2023/12/17 07:38:04;;;;;;;24.35;14.73;;;;;;;8.25;100.00;103459.28;5074482;28;20053;-59
2023/12/17 07:40:32;;;;;;;27.98;15.35;;;;;;;8.26;100.00;103455.75;5074459;28;20044;-59
2023/12/17 07:43:00;;;;;;;23.63;14.35;;;;;;;8.25;100.00;103451.41;5074313;28;20052;-59
2023/12/17 07:45:28;;;;;;;26.67;14.55;;;;;;;8.25;100.00;103461.88;5072810;28;20049;-58
2023/12/17 07:47:56;;;;;;;28.70;15.30;;;;;;;8.25;100.00;103461.88;5074388;28;20045;-58
2023/12/17 07:50:25;;;;;;;27.33;15.30;;;;;;;8.20;100.00;103457.59;5073971;28;20046;-58
2023/12/17 07:52:55;;;;;;;27.45;15.52;;;;;;;8.23;100.00;103461.03;5073899;28;20053;-59
2023/12/17 07:55:23;;;;;;;32.63;18.10;;;;;;;8.22;100.00;103464.56;5073906;28;20048;-58
2023/12/17 07:57:51;;;;;;;32.63;19.15;;;;;;;8.22;100.00;103456.69;5073973;28;20045;-58
2023/12/17 08:00:22;;;;;;;33.58;18.23;;;;;;;8.21;100.00;103461.97;5072667;28;20056;-58
2023/12/17 08:02:50;;;;;;;36.83;20.70;;;;;;;8.18;100.00;103465.50;5073886;28;20102;-58
2023/12/17 08:05:18;;;;;;;35.88;19.20;;;;;;;8.20;100.00;103474.19;5072284;28;20131;-59
2023/12/17 08:07:46;;;;;;;37.13;19.80;;;;;;;8.16;100.00;103475.13;5073939;28;20044;-58
2023/12/17 08:10:17;;;;;;;34.45;18.95;;;;;;;8.13;100.00;103486.50;5072438;28;20083;-59
2023/12/17 08:12:46;;;;;;;36.10;19.52;;;;;;;8.14;100.00;103474.28;5073873;28;20072;-58
2023/12/17 08:15:14;;;;;;;37.00;20.02;;;;;;;8.11;100.00;103469.94;5073625;28;20110;-58
2023/12/17 08:17:42;;;;;;;30.75;16.60;;;;;;;8.10;100.00;103475.22;5068317;28;20053;-58
2023/12/17 08:20:11;;;;;;;30.90;17.42;;;;;;;8.09;100.00;103476.94;5053769;28;20124;-58
2023/12/17 08:22:39;;;;;;;29.27;16.33;;;;;;;8.09;100.00;103476.09;5053740;28;20096;-58
2023/12/17 08:25:08;;;;;;;31.50;16.73;;;;;;;8.08;100.00;103469.97;5053047;28;20057;-58
2023/12/17 08:27:38;;;;;;;30.45;16.55;;;;;;;8.09;100.00;103481.34;5047500;28;20391;-58
2023/12/17 08:30:07;;;;;;;29.30;16.48;;;;;;;8.05;100.00;103474.41;5052074;28;20413;-58
2023/12/17 08:32:36;;;;;;;31.30;16.35;;;;;;;8.03;100.00;103468.28;5053480;28;20037;-58
2023/12/17 08:35:04;;;;;;;32.72;16.92;;;;;;;8.04;100.00;103470.88;5053155;28;20656;-58
2023/12/17 08:37:33;;;;;;;29.02;15.15;;;;;;;8.04;100.00;103478.75;5053799;28;20497;-58
2023/12/17 08:40:03;;;;;;;32.40;16.70;;;;;;;8.03;100.00;103476.16;5052902;28;20045;-58
2023/12/17 08:42:31;;;;;;;28.48;15.60;;;;;;;8.01;100.00;103477.94;5053090;28;20049;-58
2023/12/17 08:45:01;;;;;;;29.10;15.90;;;;;;;8.03;100.00;103471.81;5053059;28;20575;-58
2023/12/17 08:47:29;;;;;;;28.45;15.95;;;;;;;8.03;100.00;103465.66;5052909;28;20043;-57
2023/12/17 08:49:59;;;;;;;24.77;15.02;;;;;;;8.03;100.00;103470.91;5051815;28;20053;-58
2023/12/17 08:52:29;;;;;;;26.50;15.18;;;;;;;8.04;100.00;103468.28;5063717;28;20076;-58
2023/12/17 08:54:57;;;;;;;26.85;15.20;;;;;;;8.08;100.00;103463.88;5073028;28;20379;-58
2023/12/17 08:57:25;;;;;;;27.85;15.15;;;;;;;8.05;100.00;103475.25;5072799;28;20408;-58
2023/12/17 08:59:53;;;;;;;26.45;14.25;;;;;;;8.04;100.00;103467.41;5073187;28;20518;-58
2023/12/17 09:02:23;;;;;;;26.75;14.68;;;;;;;8.07;100.00;103472.59;5072899;28;20129;-59
2023/12/17 09:04:52;;;;;;;26.13;14.45;;;;;;;8.09;100.00;103468.22;5072822;28;20056;-58
2023/12/17 09:07:20;;;;;;;26.85;14.38;;;;;;;8.04;100.00;103473.50;5071169;28;20040;-58
2023/12/17 09:09:49;;;;;;;24.65;13.23;;;;;;;8.00;100.00;103468.34;5069702;28;20063;-58
2023/12/17 09:12:17;;;;;;;21.60;13.30;;;;;;;8.01;100.00;103467.47;5071416;28;20055;-58
2023/12/17 09:14:44;;;;;;;19.92;11.57;;;;;;;8.02;100.00;103464.81;5069820;28;20071;-58
2023/12/17 09:17:13;;;;;;;20.90;11.90;;;;;;;7.99;100.00;103469.22;5069448;28;20041;-58
2023/12/17 09:19:45;;;;;;;20.83;11.35;;;;;;;7.94;100.00;103464.91;5071022;28;20041;-58
2023/12/17 09:22:14;;;;;;;21.20;12.60;;;;;;;7.92;100.00;103469.31;5071100;28;20040;-58
2023/12/17 09:24:42;;;;;;;20.80;12.43;;;;;;;7.93;100.00;103472.78;5070935;28;20059;-58
2023/12/17 09:27:13;;;;;;;19.75;11.48;;;;;;;7.98;100.00;103476.22;5064173;28;20048;-58
2023/12/17 09:29:41;;;;;;;21.90;11.95;;;;;;;8.02;100.00;103464.81;5065536;28;20060;-57
2023/12/17 09:32:09;;;;;;;22.63;11.93;;;;;;;8.02;100.00;103470.06;5071389;28;20044;-58
2023/12/17 09:34:37;;;;;;;20.52;12.13;;;;;;;8.02;100.00;103474.44;5070924;28;20057;-58
2023/12/17 09:37:07;;;;;;;18.00;11.27;;;;;;;8.01;100.00;103472.69;5072097;28;20036;-58
2023/12/17 09:39:35;;;;;;;22.23;13.18;;;;;;;7.99;100.00;103475.34;5070202;28;20416;-58
2023/12/17 09:42:05;;;;;;;22.17;12.60;;;;;;;7.97;100.00;103476.25;5065429;28;20056;-59
2023/12/17 09:44:33;;;;;;;23.52;13.65;;;;;;;7.94;100.00;103474.53;5068553;28;20491;-58
2023/12/17 09:47:03;;;;;;;21.88;12.95;;;;;;;7.98;100.00;103472.75;5071900;28;20033;-58
2023/12/17 09:49:31;;;;;;;21.63;12.05;;;;;;;7.99;100.00;103471.84;5071049;28;20045;-58
2023/12/17 09:52:05;;;;;;;20.23;11.68;;;;;;;7.97;100.00;103471.84;5070599;28;20048;-58
2023/12/17 09:54:36;;;;;;;19.27;11.93;;;;;;;7.97;100.00;103471.84;5070268;28;20111;-58
2023/12/17 09:57:06;;;;;;;20.83;11.90;;;;;;;7.95;100.00;103471.88;5068394;28;20036;-59
2023/12/17 09:59:34;;;;;;;18.50;10.50;;;;;;;7.98;100.00;103470.13;5069732;28;20040;-59
2023/12/17 10:02:06;;;;;;;19.13;10.95;;;;;;;7.99;100.00;103467.47;5070354;28;20503;-58
2023/12/17 10:04:34;;;;;;;17.38;9.95;;;;;;;8.04;100.00;103475.28;5069035;28;20072;-58
2023/12/17 10:07:02;;;;;;;18.02;10.93;;;;;;;8.03;100.00;103477.03;5070281;28;20494;-58
2023/12/17 10:09:32;;;;;;;18.30;10.35;;;;;;;7.98;100.00;103465.75;5069583;28;20049;-58
2023/12/17 10:12:01;;;;;;;20.77;10.35;;;;;;;8.01;100.00;103467.47;5064770;28;20163;-57
2023/12/17 10:14:31;;;;;;;19.23;11.25;;;;;;;7.97;100.00;103464.00;5067995;28;20043;-58
2023/12/17 10:17:01;;;;;;;17.05;10.05;;;;;;;7.93;100.00;103471.06;5070054;28;20380;-57
2023/12/17 10:19:29;;;;;;;16.90;10.57;;;;;;;7.94;100.00;103472.75;5070518;28;20071;-58
2023/12/17 10:21:57;;;;;;;16.38;8.77;;;;;;;7.92;100.00;103471.94;5069980;28;20054;-58
2023/12/17 10:24:36;;;;;;;17.75;10.30;;;;;;;7.88;100.00;103475.47;5069349;28;20503;-57
2023/12/17 10:27:16;;;;;;;14.88;8.88;;;;;;;7.82;100.00;103458.97;5069241;28;20534;-58
2023/12/17 10:29:48;;;;;;;16.63;8.95;;;;;;;7.82;100.00;103472.91;5069638;28;20075;-58
2023/12/17 10:32:21;;;;;;;15.45;8.40;;;;;;;7.76;100.00;103458.13;5068722;28;20052;-48
2023/12/17 10:34:50;;;;;;;14.23;8.02;;;;;;;7.74;100.00;103462.53;5066903;28;20448;-59
2023/12/17 10:37:20;;;;;;;14.52;8.35;;;;;;;7.67;100.00;103454.75;5068820;28;20729;-57
2023/12/17 10:39:49;;;;;;;14.10;8.25;;;;;;;7.68;100.00;103464.34;5070414;28;20535;-57
2023/12/17 10:42:20;;;;;;;16.13;9.00;;;;;;;7.67;100.00;103447.75;5070033;28;20036;-57
2023/12/17 10:44:50;;;;;;;13.68;8.73;;;;;;;7.65;100.00;103451.28;5070048;28;20593;-58
2023/12/17 10:47:22;;;;;;;15.18;8.90;;;;;;;7.66;100.00;103443.41;5069583;28;20043;-58
2023/12/17 10:49:53;;;;;;;16.23;8.73;;;;;;;7.68;100.00;103446.03;5070705;28;20385;-50
2023/12/17 10:52:22;;;;;;;15.27;8.80;;;;;;;7.71;100.00;103443.34;5070377;28;20098;-46
2023/12/17 10:54:50;;;;;;;18.27;10.90;;;;;;;7.67;100.00;103441.66;5071247;28;20052;-46
2023/12/17 10:57:22;;;;;;;17.63;10.20;;;;;;;7.65;100.00;103432.94;5073749;28;20425;-46
2023/12/17 10:59:52;;;;;;;16.25;9.88;;;;;;;7.61;100.00;103438.22;5073191;28;20062;-51
2023/12/17 11:02:23;;;;;;;18.58;10.68;;;;;;;7.61;100.00;103438.22;5070599;28;20044;-50
2023/12/17 11:04:51;;;;;;;18.88;10.95;;;;;;;7.56;100.00;103442.63;5070982;28;20507;-46
2023/12/17 11:07:22;;;;;;;15.35;9.07;;;;;;;7.59;100.00;103441.75;5073168;28;20051;-48
2023/12/17 11:10:06;;;;;;;17.55;10.48;;;;;;;7.51;100.00;103447.06;5068691;28;20099;-45
2023/12/17 11:12:40;;;;;;;17.83;9.57;;;;;;;7.55;100.00;103440.91;5070003;28;20106;-46
2023/12/17 11:15:09;;;;;;;15.98;10.07;;;;;;;7.51;100.00;103451.44;5073935;28;20060;-47
2023/12/17 11:17:38;;;;;;;19.10;10.80;;;;;;;7.47;100.00;103437.50;5073089;28;20028;-49
2023/12/17 11:20:15;;;;;;;17.42;10.57;;;;;;;7.43;100.00;103428.81;5072953;28;20110;-47
2023/12/17 11:22:43;;;;;;;18.38;10.85;;;;;;;7.41;100.00;103443.66;5071986;28;20049;-47